createdAt,value
2022-12-27T00:01:11.175Z,12.33
2022-12-27T00:03:42.229Z,2.50
2022-12-27T00:06:11.549Z,1.30
2022-12-27T00:08:41.108Z,1.10
2022-12-27T00:11:10.145Z,1.67
2022-12-27T00:13:38.277Z,1.30
2022-12-27T00:16:08.194Z,1.63
2022-12-27T00:18:36.659Z,3.10
2022-12-27T00:21:05.900Z,1.43
2022-12-27T00:23:36.375Z,1.30
2022-12-27T00:26:07.241Z,1.50
2022-12-27T00:28:36.481Z,2.97
2022-12-27T00:31:05.352Z,1.20
2022-12-27T00:33:35.157Z,1.27
2022-12-27T00:36:04.794Z,1.60
2022-12-27T00:38:33.458Z,1.83
2022-12-27T00:41:02.175Z,1.53
2022-12-27T00:43:31.844Z,1.20
2022-12-27T00:46:00.217Z,4.60
2022-12-27T00:48:28.422Z,1.67
2022-12-27T00:50:59.856Z,1.20
2022-12-27T00:53:28.413Z,1.50
2022-12-27T00:55:56.867Z,1.67
2022-12-27T00:58:25.075Z,1.20
2022-12-27T01:00:54.420Z,2.07
2022-12-27T01:03:22.643Z,1.77
2022-12-27T01:05:50.684Z,1.20
2022-12-27T01:08:18.649Z,1.83
2022-12-27T01:10:46.634Z,1.53
2022-12-27T01:13:14.585Z,1.30
2022-12-27T01:15:43.072Z,1.70
2022-12-27T01:18:12.373Z,2.70
2022-12-27T01:20:40.365Z,1.13
2022-12-27T01:23:08.356Z,2.13
2022-12-27T01:25:36.255Z,1.10
2022-12-27T01:28:04.549Z,1.40
2022-12-27T01:30:32.809Z,1.40
2022-12-27T01:33:00.956Z,2.20
2022-12-27T01:35:30.260Z,1.20
2022-12-27T01:37:58.219Z,1.40
2022-12-27T01:40:26.544Z,1.03
2022-12-27T01:42:53.532Z,2.00
2022-12-27T01:45:22.880Z,1.40
2022-12-27T01:47:56.383Z,1.23
2022-12-27T01:50:30.966Z,1.17
2022-12-27T01:53:07.791Z,1.20
2022-12-27T01:55:42.478Z,1.30
2022-12-27T01:58:14.749Z,1.40
2022-12-27T02:00:46.303Z,2.17
2022-12-27T02:03:18.481Z,2.30
2022-12-27T02:05:47.894Z,1.70
2022-12-27T02:08:35.729Z,1.60
2022-12-27T02:11:05.336Z,1.30
2022-12-27T02:13:35.778Z,1.20
2022-12-27T02:16:11.999Z,1.47
2022-12-27T02:18:40.004Z,1.37
2022-12-27T02:21:32.148Z,1.50
2022-12-27T02:24:15.793Z,1.50
2022-12-27T02:26:52.231Z,1.57
2022-12-27T02:29:49.383Z,1.30
2022-12-27T02:32:22.037Z,1.10
2022-12-27T02:34:59.676Z,1.70
2022-12-27T02:37:32.998Z,1.20
2022-12-27T02:40:19.531Z,1.67
2022-12-27T02:43:05.955Z,1.23
2022-12-27T02:45:58.937Z,2.17
2022-12-27T02:48:52.781Z,1.20
2022-12-27T02:51:57.017Z,1.60
2022-12-27T02:54:43.166Z,3.63
2022-12-27T02:57:22.640Z,1.63
2022-12-27T03:00:24.915Z,2.00
2022-12-27T03:03:23.712Z,2.77
2022-12-27T03:06:41.586Z,2.63
2022-12-27T03:09:57.336Z,1.47
2022-12-27T03:13:03.166Z,1.50
2022-12-27T03:15:57.652Z,1.97
2022-12-27T03:19:10.725Z,2.27
2022-12-27T03:22:01.856Z,1.10
2022-12-27T03:24:51.095Z,1.40
2022-12-27T03:27:22.406Z,3.00
2022-12-27T03:30:11.285Z,1.33
2022-12-27T03:33:06.109Z,1.20
2022-12-27T03:35:41.531Z,1.37
2022-12-27T03:38:13.728Z,1.70
2022-12-27T03:41:08.093Z,3.77
2022-12-27T03:43:37.873Z,1.37
2022-12-27T03:46:35.658Z,1.43
2022-12-27T03:49:17.096Z,1.93
2022-12-27T03:51:49.798Z,2.13
2022-12-27T03:54:26.456Z,2.80
2022-12-27T03:56:57.270Z,2.33
2022-12-27T03:59:25.657Z,1.67
2022-12-27T04:01:54.083Z,2.43
2022-12-27T04:04:22.105Z,2.63
2022-12-27T04:06:50.411Z,2.53
2022-12-27T04:09:37.292Z,1.60
2022-12-27T04:12:23.618Z,2.80
2022-12-27T04:15:09.117Z,2.97
2022-12-27T04:17:54.777Z,3.13
2022-12-27T04:20:40.387Z,3.40
2022-12-27T04:23:26.030Z,2.33
2022-12-27T04:26:12.731Z,5.23
2022-12-27T04:28:58.550Z,2.13
2022-12-27T04:31:43.977Z,4.23
2022-12-27T04:34:29.390Z,3.33
2022-12-27T04:36:57.317Z,4.13
2022-12-27T04:39:25.285Z,3.90
2022-12-27T04:42:11.984Z,2.40
2022-12-27T04:44:57.446Z,5.60
2022-12-27T04:47:43.449Z,3.43
2022-12-27T04:50:35.219Z,2.73
2022-12-27T04:53:20.505Z,6.20
2022-12-27T04:55:48.401Z,1.87
2022-12-27T04:58:17.741Z,2.30
2022-12-27T05:01:03.329Z,4.27
2022-12-27T05:03:31.799Z,3.87
2022-12-27T05:05:59.896Z,4.83
2022-12-27T05:08:45.640Z,4.27
2022-12-27T05:11:30.995Z,7.20
2022-12-27T05:14:03.368Z,2.53
2022-12-27T05:16:32.587Z,2.70
2022-12-27T05:19:00.603Z,6.97
2022-12-27T05:21:29.422Z,1.50
2022-12-27T05:24:14.759Z,2.30
2022-12-27T05:26:42.860Z,1.60
2022-12-27T05:29:12.293Z,2.33
2022-12-27T05:31:40.265Z,2.53
2022-12-27T05:34:08.347Z,1.90
2022-12-27T05:36:36.251Z,2.23
2022-12-27T05:39:04.280Z,9.70
2022-12-27T05:41:32.200Z,2.07
2022-12-27T05:44:04.961Z,5.93
2022-12-27T05:46:36.463Z,2.40
2022-12-27T05:49:04.918Z,2.40
2022-12-27T05:51:32.893Z,2.70
2022-12-27T05:54:00.863Z,3.00
2022-12-27T05:56:28.824Z,3.83
2022-12-27T05:58:56.806Z,4.00
2022-12-27T06:01:24.790Z,1.70
2022-12-27T06:03:54.307Z,4.60
2022-12-27T06:06:22.327Z,2.60
2022-12-27T06:08:50.225Z,1.87
2022-12-27T06:11:20.684Z,2.77
2022-12-27T06:13:52.414Z,2.57
2022-12-27T06:16:23.010Z,2.43
2022-12-27T06:18:51.190Z,2.43
2022-12-27T06:21:21.957Z,3.93
2022-12-27T06:23:50.655Z,2.70
2022-12-27T06:26:20.653Z,2.50
2022-12-27T06:28:49.536Z,6.97
2022-12-27T06:31:18.467Z,2.47
2022-12-27T06:33:47.181Z,4.93
2022-12-27T06:36:16.816Z,2.70
2022-12-27T06:38:46.448Z,2.93
2022-12-27T06:41:17.147Z,1.70
2022-12-27T06:43:45.967Z,2.87
2022-12-27T06:46:17.893Z,2.60
2022-12-27T06:48:46.544Z,2.43
2022-12-27T06:51:16.229Z,2.20
2022-12-27T06:53:44.241Z,1.90
2022-12-27T06:56:16.512Z,4.90
2022-12-27T06:58:44.789Z,2.77
2022-12-27T07:01:14.362Z,2.20
2022-12-27T07:03:42.648Z,2.50
2022-12-27T07:06:12.397Z,4.07
2022-12-27T07:08:40.424Z,2.03
2022-12-27T07:11:10.543Z,2.03
2022-12-27T07:13:41.433Z,5.63
2022-12-27T07:16:11.372Z,1.97
2022-12-27T07:18:39.640Z,20.20
2022-12-27T07:21:08.896Z,2.80
2022-12-27T07:23:37.595Z,3.17
2022-12-27T07:26:06.494Z,3.00
2022-12-27T07:28:35.017Z,7.27
2022-12-27T07:31:09.185Z,2.10
2022-12-27T07:33:38.125Z,1.57
2022-12-27T07:36:08.556Z,4.00
2022-12-27T07:38:36.546Z,8.30
2022-12-27T07:41:04.889Z,2.60
2022-12-27T07:43:34.074Z,6.20
2022-12-27T07:46:05.858Z,8.67
2022-12-27T07:48:35.218Z,8.43
2022-12-27T07:51:03.555Z,2.13
2022-12-27T07:53:32.024Z,2.70
2022-12-27T07:56:00.331Z,6.43
2022-12-27T07:58:28.274Z,4.03
2022-12-27T08:00:56.324Z,3.40
2022-12-27T08:03:24.299Z,6.90
2022-12-27T08:05:53.615Z,6.13
2022-12-27T08:08:25.588Z,1.97
2022-12-27T08:10:53.533Z,10.47
2022-12-27T08:13:21.433Z,2.00
2022-12-27T08:15:56.919Z,2.17
2022-12-27T08:18:24.899Z,3.73
2022-12-27T08:20:54.408Z,3.10
2022-12-27T08:23:22.524Z,4.40
2022-12-27T08:25:50.760Z,4.80
2022-12-27T08:28:19.508Z,7.17
2022-12-27T08:30:48.064Z,4.20
2022-12-27T08:33:16.473Z,3.33
2022-12-27T08:35:54.632Z,4.43
2022-12-27T08:38:24.436Z,1.87
2022-12-27T08:40:52.456Z,2.70
2022-12-27T08:43:21.172Z,3.77
2022-12-27T08:45:49.139Z,4.30
2022-12-27T08:48:18.267Z,6.60
2022-12-27T08:50:46.214Z,3.53
2022-12-27T08:53:14.183Z,3.50
2022-12-27T08:55:43.436Z,2.63
2022-12-27T08:58:16.319Z,4.87
2022-12-27T09:00:44.603Z,3.40
2022-12-27T09:03:12.640Z,5.73
2022-12-27T09:05:42.196Z,7.30
2022-12-27T09:08:10.603Z,10.00
2022-12-27T09:10:39.602Z,6.50
2022-12-27T09:13:12.977Z,31.43
2022-12-27T09:15:47.687Z,5.53
2022-12-27T09:18:15.627Z,1.50
2022-12-27T09:20:43.542Z,4.23
2022-12-27T09:23:11.496Z,2.20
2022-12-27T09:25:39.468Z,5.37
2022-12-27T09:28:07.967Z,3.17
2022-12-27T09:30:38.405Z,3.33
2022-12-27T09:33:06.301Z,3.13
2022-12-27T09:35:38.419Z,2.70
2022-12-27T09:38:06.630Z,3.53
2022-12-27T09:40:34.534Z,3.03
2022-12-27T09:43:20.735Z,2.90
2022-12-27T09:45:56.427Z,4.03
2022-12-27T09:48:33.530Z,3.60
2022-12-27T09:51:07.517Z,2.93
2022-12-27T09:53:44.136Z,3.30
2022-12-27T09:56:13.789Z,3.83
2022-12-27T09:58:47.891Z,8.13
2022-12-27T10:01:22.823Z,5.30
2022-12-27T10:03:51.169Z,2.30
2022-12-27T10:06:44.908Z,3.30
2022-12-27T10:09:29.324Z,1.90
2022-12-27T10:12:03.503Z,7.73
2022-12-27T10:14:49.653Z,6.63
2022-12-27T10:17:36.633Z,3.80
2022-12-27T10:20:16.388Z,1.90
2022-12-27T10:22:48.403Z,6.10
2022-12-27T10:25:20.888Z,3.63
2022-12-27T10:27:49.380Z,6.50
2022-12-27T10:30:20.005Z,2.50
2022-12-27T10:32:49.987Z,1.90
2022-12-27T10:35:19.633Z,3.20
2022-12-27T10:37:48.743Z,2.43
2022-12-27T10:40:20.748Z,2.30
2022-12-27T10:42:57.980Z,4.17
2022-12-27T10:45:32.272Z,3.50
2022-12-27T10:48:17.409Z,2.57
2022-12-27T10:50:54.331Z,5.20
2022-12-27T10:53:37.497Z,3.10
2022-12-27T10:56:13.237Z,5.60
2022-12-27T10:58:42.945Z,4.00
2022-12-27T11:01:19.664Z,2.40
2022-12-27T11:03:49.001Z,18.90
2022-12-27T11:06:22.059Z,3.30
2022-12-27T11:08:50.475Z,3.33
2022-12-27T11:11:21.455Z,2.60
2022-12-27T11:13:49.608Z,2.53
2022-12-27T11:16:30.018Z,2.07
2022-12-27T11:19:01.240Z,2.00
2022-12-27T11:21:30.545Z,10.50
2022-12-27T11:24:01.804Z,5.13
2022-12-27T11:26:34.735Z,2.40
2022-12-27T11:29:03.912Z,2.70
2022-12-27T11:31:36.193Z,4.83
2022-12-27T11:34:08.584Z,2.63
2022-12-27T11:36:40.705Z,6.93
2022-12-27T11:39:09.379Z,5.40
2022-12-27T11:41:46.707Z,5.10
2022-12-27T11:44:20.861Z,5.13
2022-12-27T11:46:59.046Z,3.53
2022-12-27T11:49:32.269Z,2.67
2022-12-27T11:52:19.745Z,3.73
2022-12-27T11:55:23.885Z,3.83
2022-12-27T11:58:14.454Z,5.03
2022-12-27T12:00:50.864Z,4.13
2022-12-27T12:03:52.300Z,7.37
2022-12-27T12:06:34.580Z,3.90
2022-12-27T12:09:21.040Z,3.20
2022-12-27T12:12:06.271Z,2.30
2022-12-27T12:14:51.330Z,4.07
2022-12-27T12:17:40.756Z,4.40
2022-12-27T12:20:23.765Z,6.93
2022-12-27T12:23:06.990Z,3.33
2022-12-27T12:26:14.493Z,4.30
2022-12-27T12:29:18.371Z,4.43
2022-12-27T12:32:22.032Z,2.80
2022-12-27T12:35:05.591Z,8.27
2022-12-27T12:37:49.661Z,21.87
2022-12-27T12:40:44.227Z,3.10
2022-12-27T12:43:25.216Z,3.43
2022-12-27T12:46:22.087Z,4.37
2022-12-27T12:49:09.625Z,6.30
2022-12-27T12:51:56.289Z,4.07
2022-12-27T12:54:52.032Z,3.07
2022-12-27T12:57:37.095Z,5.83
2022-12-27T13:00:19.790Z,6.03
2022-12-27T13:03:17.806Z,3.70
2022-12-27T13:05:50.991Z,8.67
2022-12-27T13:08:29.333Z,2.97
2022-12-27T13:11:14.041Z,2.10
2022-12-27T13:14:01.072Z,3.60
2022-12-27T13:16:41.734Z,2.67
2022-12-27T13:19:28.838Z,2.93
2022-12-27T13:22:08.965Z,5.60
2022-12-27T13:24:56.011Z,7.63
2022-12-27T13:27:35.215Z,3.90
2022-12-27T13:30:16.833Z,4.90
2022-12-27T13:33:02.050Z,2.73
2022-12-27T13:35:53.128Z,2.97
2022-12-27T13:38:34.184Z,3.90
2022-12-27T13:41:15.352Z,4.53
2022-12-27T13:43:57.080Z,4.30
2022-12-27T13:47:07.913Z,3.03
2022-12-27T13:50:02.622Z,7.50
2022-12-27T13:52:47.847Z,2.90
2022-12-27T13:55:37.680Z,2.10
2022-12-27T13:58:35.562Z,15.90
2022-12-27T14:01:20.069Z,3.07
2022-12-27T14:04:06.710Z,4.97
2022-12-27T14:07:06.141Z,9.40
2022-12-27T14:09:56.646Z,3.67
2022-12-27T14:12:59.020Z,2.40
2022-12-27T14:16:05.119Z,4.33
2022-12-27T14:18:48.322Z,3.30
2022-12-27T14:21:45.353Z,9.93
2022-12-27T14:24:24.600Z,4.70
2022-12-27T14:27:39.628Z,3.30
2022-12-27T14:30:39.586Z,3.00
2022-12-27T14:33:44.814Z,8.10
2022-12-27T14:36:39.332Z,3.93
2022-12-27T14:39:44.789Z,5.10
2022-12-27T14:42:45.224Z,12.83
2022-12-27T14:46:02.296Z,5.50
2022-12-27T14:49:21.591Z,3.40
2022-12-27T14:52:12.865Z,5.80
2022-12-27T14:55:13.692Z,8.43
2022-12-27T14:57:52.512Z,3.37
2022-12-27T15:00:22.947Z,8.63
2022-12-27T15:03:09.650Z,4.23
2022-12-27T15:05:49.958Z,7.23
2022-12-27T15:08:54.141Z,4.07
2022-12-27T15:11:47.750Z,2.70
2022-12-27T15:14:44.178Z,8.03
2022-12-27T15:17:26.461Z,5.53
2022-12-27T15:20:24.797Z,11.30
2022-12-27T15:23:04.700Z,6.80
2022-12-27T15:25:48.246Z,7.13
2022-12-27T15:28:24.184Z,4.13
2022-12-27T15:31:01.602Z,4.47
2022-12-27T15:33:38.827Z,9.80
2022-12-27T15:36:13.345Z,8.90
2022-12-27T15:38:51.201Z,3.73
2022-12-27T15:41:38.043Z,7.70
2022-12-27T15:44:39.814Z,4.17
2022-12-27T15:47:46.568Z,4.10
2022-12-27T15:50:40.637Z,3.40
2022-12-27T15:53:30.389Z,5.63
2022-12-27T15:56:30.508Z,6.80
2022-12-27T15:59:36.040Z,4.47
2022-12-27T16:02:29.426Z,7.17
2022-12-27T16:05:08.276Z,6.87
2022-12-27T16:07:46.823Z,4.10
2022-12-27T16:10:48.786Z,9.87
2022-12-27T16:13:36.033Z,21.77
2022-12-27T16:16:33.386Z,22.40
2022-12-27T16:19:34.202Z,4.97
2022-12-27T16:22:24.489Z,6.30
2022-12-27T16:24:53.890Z,4.60
2022-12-27T16:27:31.592Z,6.20
2022-12-27T16:30:00.415Z,7.10
2022-12-27T16:32:29.716Z,6.83
2022-12-27T16:35:14.606Z,5.40
2022-12-27T16:37:45.913Z,9.57
2022-12-27T16:40:40.912Z,7.23
2022-12-27T16:43:41.953Z,9.10
2022-12-27T16:46:18.999Z,6.53
2022-12-27T16:49:14.063Z,6.87
2022-12-27T16:51:55.441Z,4.77
2022-12-27T16:54:31.643Z,6.33
2022-12-27T16:57:34.519Z,4.90
2022-12-27T17:00:06.401Z,5.63
2022-12-27T17:02:41.867Z,14.03
2022-12-27T17:05:35.699Z,3.23
2022-12-27T17:08:20.435Z,4.93
2022-12-27T17:11:01.542Z,13.03
2022-12-27T17:13:38.273Z,5.67
2022-12-27T17:16:09.963Z,13.23
2022-12-27T17:18:43.519Z,6.57
2022-12-27T17:21:23.318Z,6.87
2022-12-27T17:23:56.678Z,9.43
2022-12-27T17:26:43.206Z,8.30
2022-12-27T17:29:30.122Z,8.60
2022-12-27T17:32:06.615Z,3.10
2022-12-27T17:34:44.740Z,4.73
2022-12-27T17:37:20.938Z,3.93
2022-12-27T17:40:03.028Z,6.53
2022-12-27T17:42:54.015Z,7.17
2022-12-27T17:45:34.298Z,5.37
2022-12-27T17:48:21.721Z,6.20
2022-12-27T17:50:51.722Z,7.27
2022-12-27T17:53:39.738Z,19.73
2022-12-27T17:56:37.366Z,6.80
2022-12-27T17:59:10.641Z,8.50
2022-12-27T18:01:47.123Z,15.83
2022-12-27T18:04:23.097Z,6.00
2022-12-27T18:06:56.255Z,7.37
2022-12-27T18:09:36.293Z,6.53
2022-12-27T18:12:10.216Z,4.80
2022-12-27T18:14:38.399Z,8.10
2022-12-27T18:17:08.103Z,7.80
2022-12-27T18:19:36.503Z,6.67
2022-12-27T18:22:04.900Z,7.40
2022-12-27T18:24:34.661Z,3.03
2022-12-27T18:27:05.928Z,8.00
2022-12-27T18:29:34.484Z,5.30
2022-12-27T18:32:05.626Z,7.27
2022-12-27T18:34:41.049Z,8.17
2022-12-27T18:37:13.456Z,12.17
2022-12-27T18:39:47.884Z,6.00
2022-12-27T18:42:18.927Z,9.87
2022-12-27T18:44:49.816Z,7.07
2022-12-27T18:47:22.639Z,9.53
2022-12-27T18:49:56.657Z,8.63
2022-12-27T18:52:30.716Z,7.87
2022-12-27T18:55:14.304Z,7.70
2022-12-27T18:57:42.648Z,14.47
2022-12-27T19:00:21.555Z,5.50
2022-12-27T19:02:50.516Z,10.73
2022-12-27T19:05:30.042Z,9.37
2022-12-27T19:08:36.577Z,5.40
2022-12-27T19:11:06.522Z,8.93
2022-12-27T19:13:42.975Z,8.37
2022-12-27T19:16:23.008Z,12.93
2022-12-27T19:18:53.493Z,5.93
2022-12-27T19:21:31.436Z,6.70
2022-12-27T19:23:59.539Z,9.57
2022-12-27T19:26:33.277Z,13.50
2022-12-27T19:29:07.334Z,12.60
2022-12-27T19:31:36.852Z,8.27
2022-12-27T19:34:10.477Z,6.80
2022-12-27T19:36:41.876Z,7.00
2022-12-27T19:39:25.883Z,10.93
2022-12-27T19:42:00.787Z,9.20
2022-12-27T19:44:29.676Z,8.50
2022-12-27T19:46:57.670Z,14.73
2022-12-27T19:49:42.598Z,7.80
2022-12-27T19:52:17.923Z,7.30
2022-12-27T19:54:46.293Z,13.20
2022-12-27T19:57:14.855Z,5.10
2022-12-27T19:59:43.102Z,15.53
2022-12-27T20:02:11.443Z,9.03
2022-12-27T20:04:39.590Z,14.30
2022-12-27T20:07:07.633Z,12.13
2022-12-27T20:09:37.527Z,14.80
2022-12-27T20:12:07.216Z,6.63
2022-12-27T20:14:35.236Z,11.47
2022-12-27T20:17:03.417Z,16.50
2022-12-27T20:19:31.385Z,15.47
2022-12-27T20:21:59.350Z,9.63
2022-12-27T20:24:27.279Z,13.60
2022-12-27T20:26:56.539Z,14.33
2022-12-27T20:29:25.889Z,12.00
2022-12-27T20:31:54.003Z,8.60
2022-12-27T20:34:22.310Z,12.00
2022-12-27T20:36:52.058Z,14.43
2022-12-27T20:39:19.985Z,11.37
2022-12-27T20:41:48.142Z,10.13
2022-12-27T20:44:19.053Z,13.33
2022-12-27T20:46:48.506Z,12.37
2022-12-27T20:49:16.436Z,11.03
2022-12-27T20:51:44.379Z,12.93
2022-12-27T20:54:14.131Z,11.23
2022-12-27T20:56:42.126Z,18.37
2022-12-27T20:59:10.063Z,17.07
2022-12-27T21:01:39.550Z,12.80
2022-12-27T21:04:07.599Z,13.37
2022-12-27T21:06:35.506Z,15.33
2022-12-27T21:09:03.483Z,17.20
2022-12-27T21:11:32.872Z,11.50
2022-12-27T21:14:01.812Z,9.87
2022-12-27T21:16:32.400Z,11.40
2022-12-27T21:19:04.580Z,10.60
2022-12-27T21:21:34.484Z,9.07
2022-12-27T21:24:03.052Z,12.80
2022-12-27T21:26:32.835Z,13.97
2022-12-27T21:29:02.821Z,16.07
2022-12-27T21:31:31.214Z,23.10
2022-12-27T21:34:01.015Z,11.83
2022-12-27T21:36:32.008Z,13.70
2022-12-27T21:39:01.757Z,24.03
2022-12-27T21:41:31.321Z,15.30
2022-12-27T21:43:59.715Z,13.93
2022-12-27T21:46:29.750Z,30.77
2022-12-27T21:48:59.564Z,19.23
2022-12-27T21:51:29.895Z,14.47
2022-12-27T21:53:57.937Z,13.93
2022-12-27T21:56:26.554Z,14.20
2022-12-27T21:58:56.336Z,15.03
2022-12-27T22:01:26.123Z,15.07
2022-12-27T22:03:55.933Z,27.93
2022-12-27T22:06:25.342Z,19.40
2022-12-27T22:08:56.823Z,12.73
2022-12-27T22:11:26.272Z,15.97
2022-12-27T22:13:54.439Z,13.70
2022-12-27T22:16:24.251Z,23.73
2022-12-27T22:18:52.419Z,14.67
2022-12-27T22:21:22.344Z,13.17
2022-12-27T22:23:52.069Z,12.90
2022-12-27T22:26:24.027Z,11.33
2022-12-27T22:28:52.124Z,9.53
2022-12-27T22:31:22.226Z,14.07
2022-12-27T22:33:51.126Z,15.73
2022-12-27T22:36:21.169Z,14.47
2022-12-27T22:38:50.310Z,11.43
2022-12-27T22:41:21.726Z,11.80
2022-12-27T22:43:51.929Z,16.40
2022-12-27T22:46:20.967Z,14.40
2022-12-27T22:48:51.548Z,14.60
2022-12-27T22:51:21.558Z,13.80
2022-12-27T22:53:49.947Z,13.37
2022-12-27T22:56:20.029Z,13.90
2022-12-27T22:58:49.915Z,14.53
2022-12-27T23:01:19.887Z,10.63
2022-12-27T23:03:48.435Z,16.53
2022-12-27T23:06:16.945Z,11.17
2022-12-27T23:08:45.832Z,10.97
2022-12-27T23:11:16.013Z,19.43
2022-12-27T23:13:44.285Z,17.80
2022-12-27T23:16:13.685Z,13.37
2022-12-27T23:18:41.904Z,15.10
2022-12-27T23:21:20.948Z,13.20
2022-12-27T23:23:52.384Z,12.90
2022-12-27T23:26:22.470Z,10.63
2022-12-27T23:28:51.844Z,15.50
2022-12-27T23:31:22.871Z,13.43
2022-12-27T23:33:51.589Z,16.17
2022-12-27T23:36:20.271Z,19.10
2022-12-27T23:38:48.682Z,14.93
2022-12-27T23:41:19.065Z,15.63
2022-12-27T23:43:52.651Z,15.07
2022-12-27T23:46:25.663Z,13.77
2022-12-27T23:48:53.699Z,16.40
2022-12-27T23:51:22.377Z,14.53
2022-12-27T23:53:50.814Z,12.93
2022-12-27T23:56:20.655Z,12.17
2022-12-27T23:58:49.571Z,16.97
